地図

経路データ

SID SEASON NUMBER BASIN SUBBASIN NAME ISO_TIME NATURE LAT LON WMO_WIND WMO_PRES WMO_AGENCY TRACK_TYPE DIST2LAND LANDFALL IFLAG USA_AGENCY USA_ATCF_ID USA_LAT USA_LON USA_RECORD USA_STATUS USA_WIND USA_PRES USA_SSHS USA_R34_NE USA_R34_SE USA_R34_SW USA_R34_NW USA_R50_NE USA_R50_SE USA_R50_SW USA_R50_NW USA_R64_NE USA_R64_SE USA_R64_SW USA_R64_NW USA_POCI USA_ROCI USA_RMW USA_EYE TOKYO_LAT TOKYO_LON TOKYO_GRADE TOKYO_WIND TOKYO_PRES TOKYO_R50_DIR TOKYO_R50_LONG TOKYO_R50_SHORT TOKYO_R30_DIR TOKYO_R30_LONG TOKYO_R30_SHORT TOKYO_LAND CMA_LAT CMA_LON CMA_CAT CMA_WIND CMA_PRES HKO_LAT HKO_LON HKO_CAT HKO_WIND HKO_PRES NEWDELHI_LAT NEWDELHI_LON NEWDELHI_GRADE NEWDELHI_WIND NEWDELHI_PRES NEWDELHI_CI NEWDELHI_DP NEWDELHI_POCI REUNION_LAT REUNION_LON REUNION_TYPE REUNION_WIND REUNION_PRES REUNION_TNUM REUNION_CI REUNION_RMW REUNION_R34_NE REUNION_R34_SE REUNION_R34_SW REUNION_R34_NW REUNION_R50_NE REUNION_R50_SE REUNION_R50_SW REUNION_R50_NW REUNION_R64_NE REUNION_R64_SE REUNION_R64_SW REUNION_R64_NW BOM_LAT BOM_LON BOM_TYPE BOM_WIND BOM_PRES BOM_TNUM BOM_CI BOM_RMW BOM_R34_NE BOM_R34_SE BOM_R34_SW BOM_R34_NW BOM_R50_NE BOM_R50_SE BOM_R50_SW BOM_R50_NW BOM_R64_NE BOM_R64_SE BOM_R64_SW BOM_R64_NW BOM_ROCI BOM_POCI BOM_EYE BOM_POS_METHOD BOM_PRES_METHOD NADI_LAT NADI_LON NADI_CAT NADI_WIND NADI_PRES WELLINGTON_LAT WELLINGTON_LON WELLINGTON_WIND WELLINGTON_PRES DS824_LAT DS824_LON DS824_STAGE DS824_WIND DS824_PRES TD9636_LAT TD9636_LON TD9636_STAGE TD9636_WIND TD9636_PRES TD9635_LAT TD9635_LON TD9635_WIND TD9635_PRES TD9635_ROCI NEUMANN_LAT NEUMANN_LON NEUMANN_CLASS NEUMANN_WIND NEUMANN_PRES MLC_LAT MLC_LON MLC_CLASS MLC_WIND MLC_PRES USA_GUST BOM_GUST BOM_GUST_PER REUNION_GUST REUNION_GUST_PER USA_SEAHGT USA_SEARAD_NE USA_SEARAD_SE USA_SEARAD_SW USA_SEARAD_NW STORM_SPEED STORM_DIR
1861091S07445 1861 13 SI MM NOT_NAMED 1861-03-31 18:00:00 NR -7.00000 84.7000 main 1515 1509 __________O___ -1 -7.00000 84.7000 7 9 255
1861091S07445 1861 13 SI MM NOT_NAMED 1861-03-31 21:00:00 NR -7.11433 84.2736 main 1513 1510 __________P___ -1 -7.11433 84.2736 7 9 255
1861091S07445 1861 13 SI MM NOT_NAMED 1861-04-01 00:00:00 NR -7.23278 83.8476 main 1510 1510 __________P___ -1 -7.23278 83.8476 7 9 254
1861091S07445 1861 13 SI MM NOT_NAMED 1861-04-01 03:00:00 NR -7.35984 83.4229 main 1522 1518 __________P___ -1 -7.35984 83.4229 7 9 252
1861091S07445 1861 13 SI MM NOT_NAMED 1861-04-01 06:00:00 NR -7.50000 83.0000 main 1525 1523 __________O___ -1 -7.50000 83.0000 7 9 250
1861091S07445 1861 13 SI MM NOT_NAMED 1861-04-01 09:00:00 NR -7.65806 82.5805 main 1540 1537 __________P___ -1 -7.65806 82.5805 7 9 248
1861091S07445 1861 13 SI MM NOT_NAMED 1861-04-01 12:00:00 NR -7.83994 82.1698 main 1545 1545 __________P___ -1 -7.83994 82.1698 7 9 244
1861091S07445 1861 13 SI MM NOT_NAMED 1861-04-01 15:00:00 NR -8.05184 81.7742 main 1574 1572 __________P___ -1 -8.05184 81.7742 7 9 239
1861091S07445 1861 13 SI MM NOT_NAMED 1861-04-01 18:00:00 NR -8.30000 81.4000 main 1593 1593 __________O___ -1 -8.30000 81.4000 7 9 234
1861091S07445 1861 13 SI MM NOT_NAMED 1861-04-01 21:00:00 NR -8.60122 81.0212 main 1625 1625 __________P___ -1 -8.60122 81.0212 7 10 229
1861091S07445 1861 13 SI MM NOT_NAMED 1861-04-02 00:00:00 NR -8.93501 80.6678 main 1658 1658 __________P___ -1 -8.93501 80.6678 7 9 224
1861091S07445 1861 13 SI MM NOT_NAMED 1861-04-02 03:00:00 NR -9.27628 80.3555 main 1703 1703 __________P___ -1 -9.27628 80.3555 7 9 220
1861091S07445 1861 13 SI MM NOT_NAMED 1861-04-02 06:00:00 NR -9.60000 80.1000 main 1737 1737 __________O___ -1 -9.60000 80.1000 7 7 217
1861091S07445 1861 13 SI MM NOT_NAMED 1861-04-02 09:00:00 NR -9.85919 79.9131 main 1772 1772 __________P___ -1 -9.85919 79.9131 7 6 212
1861091S07445 1861 13 SI MM NOT_NAMED 1861-04-02 12:00:00 NR -10.0998 79.7821 main 1795 1795 __________P___ -1 -10.0998 79.7821 7 5 205
1861091S07445 1861 13 SI MM NOT_NAMED 1861-04-02 15:00:00 NR -10.3405 79.6850 main 1817 1817 __________P___ -1 -10.3405 79.6850 7 5 200
1861091S07445 1861 13 SI MM NOT_NAMED 1861-04-02 18:00:00 NR -10.6000 79.6000 main 1852 1852 __________O___ -1 -10.6000 79.6000 7 6 198
1861091S07445 1861 13 SI MM NOT_NAMED 1861-04-02 21:00:00 NR -10.8923 79.5090 main 1886 1886 __________P___ -1 -10.8923 79.5090 7 6 197
1861091S07445 1861 13 SI MM NOT_NAMED 1861-04-03 00:00:00 NR -11.2126 79.4104 main 1920 1920 __________P___ -1 -11.2126 79.4104 7 7 197
1861091S07445 1861 13 SI MM NOT_NAMED 1861-04-03 03:00:00 NR -11.5517 79.3066 main 1966 1966 __________P___ -1 -11.5517 79.3066 7 7 197
1861091S07445 1861 13 SI MM NOT_NAMED 1861-04-03 06:00:00 NR -11.9000 79.2000 main 2000 __________O___ -1 -11.9000 79.2000 7 7 197

IBTrACS Databaseについて

本データベースは、米国NOAAが公開する1842年以降の世界の熱帯低気圧のベストトラックデータアーカイブInternational Best Track Archive for Climate Stewardship (IBTrACS)を、ウェブで閲覧しやすい形式に変換したものです。

最終更新日:2021-10-27